sensor_id;sensor_type;location;lat;lon;timestamp;pressure;altitude;pressure_sealevel;temperature
65765;BMP180;52915;53.718;19.946;2022-07-06T00:00:40;100722.60;;;16.70
65765;BMP180;52915;53.718;19.946;2022-07-06T00:05:44;100731.20;;;16.60
65765;BMP180;52915;53.718;19.946;2022-07-06T00:10:49;100725.80;;;16.50
65765;BMP180;52915;53.718;19.946;2022-07-06T00:15:53;100728.80;;;16.70
65765;BMP180;52915;53.718;19.946;2022-07-06T00:20:58;100729.60;;;16.70
65765;BMP180;52915;53.718;19.946;2022-07-06T00:26:02;100734.40;;;16.60
65765;BMP180;52915;53.718;19.946;2022-07-06T00:31:07;100726.80;;;16.40
65765;BMP180;52915;53.718;19.946;2022-07-06T00:36:11;100725.20;;;16.32
65765;BMP180;52915;53.718;19.946;2022-07-06T00:41:16;100726.60;;;16.40
65765;BMP180;52915;53.718;19.946;2022-07-06T00:46:27;100724.40;;;16.40
65765;BMP180;52915;53.718;19.946;2022-07-06T00:51:36;100717.40;;;16.30
65765;BMP180;52915;53.718;19.946;2022-07-06T00:56:41;100709.40;;;16.10
65765;BMP180;52915;53.718;19.946;2022-07-06T01:01:46;100700.80;;;15.86
65765;BMP180;52915;53.718;19.946;2022-07-06T01:06:50;100693.20;;;15.80
65765;BMP180;52915;53.718;19.946;2022-07-06T01:11:55;100698.80;;;15.90
65765;BMP180;52915;53.718;19.946;2022-07-06T01:16:59;100699.60;;;15.92
65765;BMP180;52915;53.718;19.946;2022-07-06T01:22:04;100697.40;;;15.90
65765;BMP180;52915;53.718;19.946;2022-07-06T01:27:08;100693.60;;;15.80
65765;BMP180;52915;53.718;19.946;2022-07-06T01:32:12;100693.60;;;15.70
65765;BMP180;52915;53.718;19.946;2022-07-06T01:37:17;100693.20;;;15.80
65765;BMP180;52915;53.718;19.946;2022-07-06T01:42:20;100698.80;;;15.80
65765;BMP180;52915;53.718;19.946;2022-07-06T01:47:25;100688.00;;;15.56
65765;BMP180;52915;53.718;19.946;2022-07-06T01:52:29;100683.60;;;15.50
65765;BMP180;52915;53.718;19.946;2022-07-06T01:57:33;100686.20;;;15.60
65765;BMP180;52915;53.718;19.946;2022-07-06T02:02:38;100670.40;;;15.54
65765;BMP180;52915;53.718;19.946;2022-07-06T02:07:42;100673.00;;;15.40
65765;BMP180;52915;53.718;19.946;2022-07-06T02:12:47;100673.80;;;15.40
65765;BMP180;52915;53.718;19.946;2022-07-06T02:17:51;100670.20;;;15.40
65765;BMP180;52915;53.718;19.946;2022-07-06T02:22:55;100674.20;;;15.50
65765;BMP180;52915;53.718;19.946;2022-07-06T02:28:00;100667.40;;;15.50
65765;BMP180;52915;53.718;19.946;2022-07-06T02:33:04;100675.20;;;15.30
65765;BMP180;52915;53.718;19.946;2022-07-06T02:38:09;100681.40;;;15.30
65765;BMP180;52915;53.718;19.946;2022-07-06T02:43:14;100679.60;;;15.34
65765;BMP180;52915;53.718;19.946;2022-07-06T02:48:18;100684.40;;;15.40
65765;BMP180;52915;53.718;19.946;2022-07-06T02:53:25;100675.00;;;15.30
65765;BMP180;52915;53.718;19.946;2022-07-06T02:58:30;100675.40;;;15.20
65765;BMP180;52915;53.718;19.946;2022-07-06T03:03:34;100675.80;;;15.20
65765;BMP180;52915;53.718;19.946;2022-07-06T03:08:39;100674.60;;;15.30
65765;BMP180;52915;53.718;19.946;2022-07-06T03:13:43;100670.20;;;15.40
65765;BMP180;52915;53.718;19.946;2022-07-06T03:18:47;100669.40;;;15.30
65765;BMP180;52915;53.718;19.946;2022-07-06T03:23:52;100657.20;;;15.22
65765;BMP180;52915;53.718;19.946;2022-07-06T03:28:56;100656.40;;;15.40
65765;BMP180;52915;53.718;19.946;2022-07-06T03:34:01;100652.40;;;15.50
65765;BMP180;52915;53.718;19.946;2022-07-06T03:39:06;100648.00;;;15.50
65765;BMP180;52915;53.718;19.946;2022-07-06T03:44:10;100638.20;;;15.50
65765;BMP180;52915;53.718;19.946;2022-07-06T03:49:14;100643.60;;;15.60
65765;BMP180;52915;53.718;19.946;2022-07-06T03:54:18;100646.20;;;15.72
65765;BMP180;52915;53.718;19.946;2022-07-06T03:59:22;100638.40;;;15.92
65765;BMP180;52915;53.718;19.946;2022-07-06T04:04:27;100640.00;;;16.10
65765;BMP180;52915;53.718;19.946;2022-07-06T04:09:31;100640.40;;;16.20
65765;BMP180;52915;53.718;19.946;2022-07-06T04:14:35;100639.80;;;16.20
65765;BMP180;52915;53.718;19.946;2022-07-06T04:19:39;100638.40;;;16.26
65765;BMP180;52915;53.718;19.946;2022-07-06T04:24:43;100636.20;;;16.48
65765;BMP180;52915;53.718;19.946;2022-07-06T04:29:47;100636.40;;;16.76
65765;BMP180;52915;53.718;19.946;2022-07-06T04:34:52;100633.40;;;16.90
65765;BMP180;52915;53.718;19.946;2022-07-06T04:39:59;100627.40;;;17.00
65765;BMP180;52915;53.718;19.946;2022-07-06T04:45:05;100625.20;;;17.00
65765;BMP180;52915;53.718;19.946;2022-07-06T04:50:11;100635.40;;;17.10
65765;BMP180;52915;53.718;19.946;2022-07-06T04:55:15;100620.60;;;17.30
65765;BMP180;52915;53.718;19.946;2022-07-06T05:00:20;100621.60;;;17.40
65765;BMP180;52915;53.718;19.946;2022-07-06T05:05:25;100622.20;;;17.40
65765;BMP180;52915;53.718;19.946;2022-07-06T05:10:30;100617.00;;;17.60
65765;BMP180;52915;53.718;19.946;2022-07-06T05:15:35;100605.00;;;18.00
65765;BMP180;52915;53.718;19.946;2022-07-06T05:20:39;100608.40;;;18.14
65765;BMP180;52915;53.718;19.946;2022-07-06T05:25:44;100604.00;;;18.20
65765;BMP180;52915;53.718;19.946;2022-07-06T05:30:48;100597.60;;;18.56
65765;BMP180;52915;53.718;19.946;2022-07-06T05:35:52;100594.60;;;18.94
65765;BMP180;52915;53.718;19.946;2022-07-06T05:40:57;100598.60;;;19.12
65765;BMP180;52915;53.718;19.946;2022-07-06T05:46:01;100598.40;;;19.30
65765;BMP180;52915;53.718;19.946;2022-07-06T05:51:06;100602.20;;;19.70
65765;BMP180;52915;53.718;19.946;2022-07-06T05:56:10;100601.20;;;19.90
65765;BMP180;52915;53.718;19.946;2022-07-06T06:01:15;100607.40;;;20.10
65765;BMP180;52915;53.718;19.946;2022-07-06T06:06:19;100600.00;;;20.16
65765;BMP180;52915;53.718;19.946;2022-07-06T06:11:23;100588.60;;;20.40
65765;BMP180;52915;53.718;19.946;2022-07-06T06:16:28;100586.60;;;20.50
65765;BMP180;52915;53.718;19.946;2022-07-06T06:21:33;100583.00;;;20.70
65765;BMP180;52915;53.718;19.946;2022-07-06T06:26:37;100585.40;;;20.90
65765;BMP180;52915;53.718;19.946;2022-07-06T06:31:41;100590.60;;;21.00
65765;BMP180;52915;53.718;19.946;2022-07-06T06:36:47;100594.60;;;21.00
65765;BMP180;52915;53.718;19.946;2022-07-06T06:41:51;100594.80;;;21.00
65765;BMP180;52915;53.718;19.946;2022-07-06T06:46:55;100596.40;;;21.22
65765;BMP180;52915;53.718;19.946;2022-07-06T06:52:03;100596.00;;;21.48
65765;BMP180;52915;53.718;19.946;2022-07-06T06:57:34;100590.40;;;21.52
65765;BMP180;52915;53.718;19.946;2022-07-06T07:02:38;100581.00;;;21.66
65765;BMP180;52915;53.718;19.946;2022-07-06T07:07:43;100576.00;;;21.90
65765;BMP180;52915;53.718;19.946;2022-07-06T07:12:47;100576.00;;;22.00
65765;BMP180;52915;53.718;19.946;2022-07-06T07:17:51;100579.40;;;22.10
65765;BMP180;52915;53.718;19.946;2022-07-06T07:22:57;100575.20;;;22.38
65765;BMP180;52915;53.718;19.946;2022-07-06T07:28:01;100575.20;;;22.60
65765;BMP180;52915;53.718;19.946;2022-07-06T07:33:06;100575.40;;;22.90
65765;BMP180;52915;53.718;19.946;2022-07-06T07:38:10;100584.40;;;23.30
65765;BMP180;52915;53.718;19.946;2022-07-06T07:43:15;100581.40;;;23.40
65765;BMP180;52915;53.718;19.946;2022-07-06T07:48:19;100578.80;;;23.90
65765;BMP180;52915;53.718;19.946;2022-07-06T07:53:24;100584.20;;;24.10
65765;BMP180;52915;53.718;19.946;2022-07-06T07:58:28;100578.80;;;24.20
65765;BMP180;52915;53.718;19.946;2022-07-06T08:03:33;100577.20;;;24.40
65765;BMP180;52915;53.718;19.946;2022-07-06T08:08:37;100580.20;;;24.50
65765;BMP180;52915;53.718;19.946;2022-07-06T08:13:41;100595.00;;;24.52
65765;BMP180;52915;53.718;19.946;2022-07-06T08:18:46;100579.20;;;24.10
65765;BMP180;52915;53.718;19.946;2022-07-06T08:23:51;100590.60;;;24.32
65765;BMP180;52915;53.718;19.946;2022-07-06T08:28:55;100579.40;;;24.46
65765;BMP180;52915;53.718;19.946;2022-07-06T08:34:01;100598.20;;;24.30
65765;BMP180;52915;53.718;19.946;2022-07-06T08:39:06;100587.20;;;24.10
65765;BMP180;52915;53.718;19.946;2022-07-06T08:44:12;100578.00;;;24.50
65765;BMP180;52915;53.718;19.946;2022-07-06T08:49:18;100579.20;;;24.90
65765;BMP180;52915;53.718;19.946;2022-07-06T08:54:24;100591.40;;;25.06
65765;BMP180;52915;53.718;19.946;2022-07-06T08:59:33;100578.40;;;25.22
65765;BMP180;52915;53.718;19.946;2022-07-06T09:04:39;100589.40;;;25.44
65765;BMP180;52915;53.718;19.946;2022-07-06T09:09:46;100580.20;;;25.70
65765;BMP180;52915;53.718;19.946;2022-07-06T09:14:51;100575.80;;;26.10
65765;BMP180;52915;53.718;19.946;2022-07-06T09:19:56;100575.40;;;26.30
65765;BMP180;52915;53.718;19.946;2022-07-06T09:25:23;100561.60;;;26.30
65765;BMP180;52915;53.718;19.946;2022-07-06T09:30:29;100557.40;;;26.24
65765;BMP180;52915;53.718;19.946;2022-07-06T09:35:38;100558.00;;;26.38
65765;BMP180;52915;53.718;19.946;2022-07-06T09:40:44;100558.00;;;26.50
65765;BMP180;52915;53.718;19.946;2022-07-06T09:45:55;100559.20;;;26.60
65765;BMP180;52915;53.718;19.946;2022-07-06T09:51:01;100550.80;;;26.98
65765;BMP180;52915;53.718;19.946;2022-07-06T09:56:10;100547.40;;;26.90
65765;BMP180;52915;53.718;19.946;2022-07-06T10:01:27;100543.60;;;27.18
65765;BMP180;52915;53.718;19.946;2022-07-06T10:06:34;100532.00;;;27.68
65765;BMP180;52915;53.718;19.946;2022-07-06T10:11:56;100545.00;;;27.68
65765;BMP180;52915;53.718;19.946;2022-07-06T10:17:03;100558.80;;;27.60
65765;BMP180;52915;53.718;19.946;2022-07-06T10:22:09;100536.80;;;26.86
65765;BMP180;52915;53.718;19.946;2022-07-06T10:27:15;100555.80;;;26.30
65765;BMP180;52915;53.718;19.946;2022-07-06T10:32:22;100559.60;;;25.80
65765;BMP180;52915;53.718;19.946;2022-07-06T10:37:28;100554.00;;;25.30
65765;BMP180;52915;53.718;19.946;2022-07-06T10:42:44;100563.00;;;24.80
65765;BMP180;52915;53.718;19.946;2022-07-06T10:53:22;100570.80;;;23.80
65765;BMP180;52915;53.718;19.946;2022-07-06T10:58:50;100566.60;;;23.70
65765;BMP180;52915;53.718;19.946;2022-07-06T11:09:08;100546.60;;;24.78
65765;BMP180;52915;53.718;19.946;2022-07-06T11:14:16;100551.20;;;25.10
65765;BMP180;52915;53.718;19.946;2022-07-06T11:19:23;100545.40;;;25.10
65765;BMP180;52915;53.718;19.946;2022-07-06T11:24:30;100560.60;;;25.00
65765;BMP180;52915;53.718;19.946;2022-07-06T11:29:35;100560.40;;;24.70
65765;BMP180;52915;53.718;19.946;2022-07-06T11:34:44;100549.60;;;24.70
65765;BMP180;52915;53.718;19.946;2022-07-06T11:39:52;100558.20;;;24.90
65765;BMP180;52915;53.718;19.946;2022-07-06T11:44:57;100553.40;;;24.60
65765;BMP180;52915;53.718;19.946;2022-07-06T11:50:02;100549.20;;;24.30
65765;BMP180;52915;53.718;19.946;2022-07-06T11:55:14;100544.60;;;24.70
65765;BMP180;52915;53.718;19.946;2022-07-06T12:00:23;100550.40;;;24.68
65765;BMP180;52915;53.718;19.946;2022-07-06T12:05:48;100548.60;;;24.42
65765;BMP180;52915;53.718;19.946;2022-07-06T12:11:21;100552.80;;;24.20
65765;BMP180;52915;53.718;19.946;2022-07-06T12:16:34;100555.80;;;23.90
65765;BMP180;52915;53.718;19.946;2022-07-06T12:21:47;100553.20;;;23.92
65765;BMP180;52915;53.718;19.946;2022-07-06T12:26:54;100534.80;;;24.22
65765;BMP180;52915;53.718;19.946;2022-07-06T12:32:05;100547.60;;;24.90
65765;BMP180;52915;53.718;19.946;2022-07-06T12:37:18;100545.40;;;24.70
65765;BMP180;52915;53.718;19.946;2022-07-06T12:42:23;100546.40;;;24.60
65765;BMP180;52915;53.718;19.946;2022-07-06T12:47:28;100537.60;;;24.58
65765;BMP180;52915;53.718;19.946;2022-07-06T12:52:33;100530.20;;;25.14
65765;BMP180;52915;53.718;19.946;2022-07-06T12:57:47;100551.60;;;25.20
65765;BMP180;52915;53.718;19.946;2022-07-06T13:02:53;100560.40;;;24.80
65765;BMP180;52915;53.718;19.946;2022-07-06T13:08:14;100565.20;;;24.30
65765;BMP180;52915;53.718;19.946;2022-07-06T13:13:18;100566.00;;;23.90
65765;BMP180;52915;53.718;19.946;2022-07-06T13:18:23;100536.80;;;24.12
65765;BMP180;52915;53.718;19.946;2022-07-06T13:23:28;100551.20;;;24.40
65765;BMP180;52915;53.718;19.946;2022-07-06T13:28:33;100547.80;;;24.40
65765;BMP180;52915;53.718;19.946;2022-07-06T13:33:38;100549.80;;;24.50
65765;BMP180;52915;53.718;19.946;2022-07-06T13:38:43;100517.40;;;24.88
65765;BMP180;52915;53.718;19.946;2022-07-06T13:43:48;100527.20;;;25.50
65765;BMP180;52915;53.718;19.946;2022-07-06T13:48:52;100526.00;;;25.26
65765;BMP180;52915;53.718;19.946;2022-07-06T13:53:59;100522.40;;;24.68
65765;BMP180;52915;53.718;19.946;2022-07-06T13:59:06;100528.40;;;24.08
65765;BMP180;52915;53.718;19.946;2022-07-06T14:04:11;100547.40;;;23.44
65765;BMP180;52915;53.718;19.946;2022-07-06T14:09:16;100558.80;;;22.80
65765;BMP180;52915;53.718;19.946;2022-07-06T14:14:22;100562.60;;;22.30
65765;BMP180;52915;53.718;19.946;2022-07-06T14:19:28;100561.80;;;21.84
65765;BMP180;52915;53.718;19.946;2022-07-06T14:24:33;100555.00;;;21.50
65765;BMP180;52915;53.718;19.946;2022-07-06T14:29:39;100551.00;;;21.30
65765;BMP180;52915;53.718;19.946;2022-07-06T14:34:44;100542.40;;;21.30
65765;BMP180;52915;53.718;19.946;2022-07-06T14:39:49;100547.00;;;21.40
65765;BMP180;52915;53.718;19.946;2022-07-06T14:44:53;100553.40;;;21.50
65765;BMP180;52915;53.718;19.946;2022-07-06T14:49:58;100552.60;;;21.64
65765;BMP180;52915;53.718;19.946;2022-07-06T14:55:03;100542.80;;;21.90
65765;BMP180;52915;53.718;19.946;2022-07-06T15:00:17;100542.60;;;22.10
65765;BMP180;52915;53.718;19.946;2022-07-06T15:05:22;100536.00;;;22.10
65765;BMP180;52915;53.718;19.946;2022-07-06T15:10:26;100538.40;;;22.00
65765;BMP180;52915;53.718;19.946;2022-07-06T15:15:31;100536.00;;;21.80
65765;BMP180;52915;53.718;19.946;2022-07-06T15:20:56;100536.80;;;21.40
65765;BMP180;52915;53.718;19.946;2022-07-06T15:26:02;100537.20;;;21.40
65765;BMP180;52915;53.718;19.946;2022-07-06T15:31:07;100554.00;;;21.30
65765;BMP180;52915;53.718;19.946;2022-07-06T15:36:11;100547.20;;;21.20
65765;BMP180;52915;53.718;19.946;2022-07-06T15:41:16;100538.40;;;21.70
65765;BMP180;52915;53.718;19.946;2022-07-06T15:46:21;100537.20;;;22.10
65765;BMP180;52915;53.718;19.946;2022-07-06T15:51:26;100545.60;;;21.86
65765;BMP180;52915;53.718;19.946;2022-07-06T15:56:33;100546.80;;;21.70
65765;BMP180;52915;53.718;19.946;2022-07-06T16:01:37;100546.00;;;21.30
65765;BMP180;52915;53.718;19.946;2022-07-06T16:06:42;100542.20;;;20.98
65765;BMP180;52915;53.718;19.946;2022-07-06T16:12:07;100545.60;;;20.70
65765;BMP180;52915;53.718;19.946;2022-07-06T16:17:11;100541.00;;;20.60
65765;BMP180;52915;53.718;19.946;2022-07-06T16:22:16;100549.80;;;20.50
65765;BMP180;52915;53.718;19.946;2022-07-06T16:27:21;100557.00;;;20.30
65765;BMP180;52915;53.718;19.946;2022-07-06T16:32:25;100552.20;;;20.30
65765;BMP180;52915;53.718;19.946;2022-07-06T16:37:29;100554.80;;;20.10
65765;BMP180;52915;53.718;19.946;2022-07-06T16:42:34;100556.40;;;19.90
65765;BMP180;52915;53.718;19.946;2022-07-06T16:47:40;100555.40;;;19.80
65765;BMP180;52915;53.718;19.946;2022-07-06T16:52:45;100554.40;;;19.60
65765;BMP180;52915;53.718;19.946;2022-07-06T16:57:50;100560.80;;;19.40
65765;BMP180;52915;53.718;19.946;2022-07-06T17:10:02;100558.00;;;19.00
65765;BMP180;52915;53.718;19.946;2022-07-06T17:15:16;100557.20;;;19.04
65765;BMP180;52915;53.718;19.946;2022-07-06T17:20:20;100550.40;;;19.12
65765;BMP180;52915;53.718;19.946;2022-07-06T17:25:25;100537.20;;;19.40
65765;BMP180;52915;53.718;19.946;2022-07-06T17:30:29;100532.20;;;19.74
65765;BMP180;52915;53.718;19.946;2022-07-06T17:35:37;100536.00;;;19.82
65765;BMP180;52915;53.718;19.946;2022-07-06T17:40:44;100534.00;;;19.72
65765;BMP180;52915;53.718;19.946;2022-07-06T17:45:50;100540.80;;;19.80
65765;BMP180;52915;53.718;19.946;2022-07-06T17:50:55;100537.80;;;19.90
65765;BMP180;52915;53.718;19.946;2022-07-06T17:56:01;100544.60;;;19.60
65765;BMP180;52915;53.718;19.946;2022-07-06T18:01:07;100548.00;;;19.46
65765;BMP180;52915;53.718;19.946;2022-07-06T18:06:12;100553.40;;;19.30
65765;BMP180;52915;53.718;19.946;2022-07-06T18:11:17;100558.00;;;19.20
65765;BMP180;52915;53.718;19.946;2022-07-06T18:16:22;100558.80;;;19.00
65765;BMP180;52915;53.718;19.946;2022-07-06T18:21:27;100557.40;;;18.80
65765;BMP180;52915;53.718;19.946;2022-07-06T18:26:32;100558.60;;;18.70
65765;BMP180;52915;53.718;19.946;2022-07-06T18:31:38;100564.80;;;18.56
65765;BMP180;52915;53.718;19.946;2022-07-06T18:36:42;100566.80;;;18.50
65765;BMP180;52915;53.718;19.946;2022-07-06T18:41:47;100564.60;;;18.30
65765;BMP180;52915;53.718;19.946;2022-07-06T18:46:57;100571.80;;;18.20
65765;BMP180;52915;53.718;19.946;2022-07-06T18:52:01;100571.20;;;18.00
65765;BMP180;52915;53.718;19.946;2022-07-06T18:57:09;100570.80;;;17.80
65765;BMP180;52915;53.718;19.946;2022-07-06T19:02:15;100574.40;;;17.60
65765;BMP180;52915;53.718;19.946;2022-07-06T19:07:20;100573.20;;;17.40
65765;BMP180;52915;53.718;19.946;2022-07-06T19:12:29;100574.80;;;17.24
65765;BMP180;52915;53.718;19.946;2022-07-06T19:17:37;100576.40;;;17.10
65765;BMP180;52915;53.718;19.946;2022-07-06T19:22:43;100579.80;;;17.00
65765;BMP180;52915;53.718;19.946;2022-07-06T19:27:50;100582.20;;;16.90
65765;BMP180;52915;53.718;19.946;2022-07-06T19:32:56;100584.20;;;16.80
65765;BMP180;52915;53.718;19.946;2022-07-06T19:38:01;100584.40;;;16.82
65765;BMP180;52915;53.718;19.946;2022-07-06T19:43:05;100585.00;;;16.90
65765;BMP180;52915;53.718;19.946;2022-07-06T19:48:10;100586.40;;;16.80
65765;BMP180;52915;53.718;19.946;2022-07-06T19:53:15;100580.80;;;16.70
65765;BMP180;52915;53.718;19.946;2022-07-06T19:58:19;100578.20;;;16.60
65765;BMP180;52915;53.718;19.946;2022-07-06T20:03:25;100576.60;;;16.60
65765;BMP180;52915;53.718;19.946;2022-07-06T20:08:30;100570.00;;;16.48
65765;BMP180;52915;53.718;19.946;2022-07-06T20:13:34;100570.00;;;16.40
65765;BMP180;52915;53.718;19.946;2022-07-06T20:18:39;100566.20;;;16.50
65765;BMP180;52915;53.718;19.946;2022-07-06T20:23:50;100571.00;;;16.50
65765;BMP180;52915;53.718;19.946;2022-07-06T20:28:55;100573.00;;;16.30
65765;BMP180;52915;53.718;19.946;2022-07-06T20:34:00;100574.20;;;16.12
65765;BMP180;52915;53.718;19.946;2022-07-06T20:39:04;100569.00;;;15.96
65765;BMP180;52915;53.718;19.946;2022-07-06T20:44:09;100566.80;;;15.80
65765;BMP180;52915;53.718;19.946;2022-07-06T20:49:13;100560.80;;;15.70
65765;BMP180;52915;53.718;19.946;2022-07-06T20:54:24;100567.00;;;15.80
65765;BMP180;52915;53.718;19.946;2022-07-06T20:59:28;100560.80;;;15.90
65765;BMP180;52915;53.718;19.946;2022-07-06T21:04:33;100560.80;;;15.70
65765;BMP180;52915;53.718;19.946;2022-07-06T21:09:38;100563.00;;;15.50
65765;BMP180;52915;53.718;19.946;2022-07-06T21:14:42;100569.20;;;15.34
65765;BMP180;52915;53.718;19.946;2022-07-06T21:19:46;100569.40;;;15.20
65765;BMP180;52915;53.718;19.946;2022-07-06T21:24:51;100572.00;;;15.30
65765;BMP180;52915;53.718;19.946;2022-07-06T21:29:55;100570.80;;;15.30
65765;BMP180;52915;53.718;19.946;2022-07-06T21:34:59;100571.00;;;15.10
65765;BMP180;52915;53.718;19.946;2022-07-06T21:40:05;100570.40;;;14.90
65765;BMP180;52915;53.718;19.946;2022-07-06T21:45:10;100566.60;;;14.80
65765;BMP180;52915;53.718;19.946;2022-07-06T21:50:14;100573.00;;;14.80
65765;BMP180;52915;53.718;19.946;2022-07-06T21:55:18;100567.60;;;14.80
65765;BMP180;52915;53.718;19.946;2022-07-06T22:00:23;100566.80;;;14.60
65765;BMP180;52915;53.718;19.946;2022-07-06T22:05:27;100560.40;;;14.40
65765;BMP180;52915;53.718;19.946;2022-07-06T22:10:35;100562.00;;;14.30
65765;BMP180;52915;53.718;19.946;2022-07-06T22:15:39;100569.20;;;14.30
65765;BMP180;52915;53.718;19.946;2022-07-06T22:20:44;100563.80;;;14.28
65765;BMP180;52915;53.718;19.946;2022-07-06T22:25:48;100565.20;;;14.10
65765;BMP180;52915;53.718;19.946;2022-07-06T22:30:52;100565.20;;;14.00
65765;BMP180;52915;53.718;19.946;2022-07-06T22:35:57;100566.80;;;13.96
65765;BMP180;52915;53.718;19.946;2022-07-06T22:41:01;100568.20;;;14.00
65765;BMP180;52915;53.718;19.946;2022-07-06T22:46:09;100564.40;;;13.90
65765;BMP180;52915;53.718;19.946;2022-07-06T22:51:16;100570.40;;;13.70
65765;BMP180;52915;53.718;19.946;2022-07-06T22:56:21;100574.80;;;13.70
65765;BMP180;52915;53.718;19.946;2022-07-06T23:01:25;100569.80;;;13.70
65765;BMP180;52915;53.718;19.946;2022-07-06T23:06:29;100560.80;;;13.52
65765;BMP180;52915;53.718;19.946;2022-07-06T23:11:34;100555.40;;;13.60
65765;BMP180;52915;53.718;19.946;2022-07-06T23:16:38;100557.00;;;13.60
65765;BMP180;52915;53.718;19.946;2022-07-06T23:21:43;100559.40;;;13.50
65765;BMP180;52915;53.718;19.946;2022-07-06T23:26:47;100556.00;;;13.40
65765;BMP180;52915;53.718;19.946;2022-07-06T23:31:51;100564.40;;;13.50
65765;BMP180;52915;53.718;19.946;2022-07-06T23:36:55;100558.60;;;13.50
65765;BMP180;52915;53.718;19.946;2022-07-06T23:42:00;100557.00;;;13.30
65765;BMP180;52915;53.718;19.946;2022-07-06T23:47:05;100560.80;;;13.30
65765;BMP180;52915;53.718;19.946;2022-07-06T23:52:09;100559.60;;;13.30
65765;BMP180;52915;53.718;19.946;2022-07-06T23:57:13;100557.20;;;13.20
